Time;durP1;ratioP1;P1;durP2;ratioP2;P2;SDS_P1;SDS_P2;PMS_P1;PMS_P2;Temp;Humidity;BMP_temperature;BMP_pressure;BME280_temperature;BME280_humidity;BME280_pressure;Samples;Min_cycle;Max_cycle;Signal;HPM_P1;HPM_P2
2023/08/09 00:01:04;;;;;;;2.35;2.25;;;;;;;13.90;100.00;63434.31;5084380;28;20223;-76
2023/08/09 00:03:33;;;;;;;2.45;2.35;;;;;;;13.91;100.00;63435.34;5097518;28;20243;-76
2023/08/09 00:06:00;;;;;;;2.60;2.50;;;;;;;13.87;100.00;63436.81;5104739;28;20420;-75
2023/08/09 00:08:27;;;;;;;2.25;2.15;;;;;;;13.85;100.00;63426.56;5102241;28;20444;-76
2023/08/09 00:10:54;;;;;;;2.80;2.70;;;;;;;13.74;100.00;63423.34;5099578;28;20220;-75
2023/08/09 00:13:21;;;;;;;2.42;2.33;;;;;;;13.72;100.00;63418.69;5084370;28;20326;-74
2023/08/09 00:15:48;;;;;;;2.13;2.13;;;;;;;13.71;100.00;63417.13;5101654;28;20507;-75
2023/08/09 00:18:16;;;;;;;3.13;2.92;;;;;;;13.68;100.00;63408.91;5102364;28;20219;-74
2023/08/09 00:20:44;;;;;;;2.72;2.25;;;;;;;13.71;100.00;63415.09;5101784;28;20384;-74
2023/08/09 00:23:13;;;;;;;5.65;2.78;;;;;;;13.69;100.00;63410.47;5087225;28;20248;-74
2023/08/09 00:25:41;;;;;;;2.53;2.42;;;;;;;13.71;100.00;63415.09;5088505;28;20212;-75
2023/08/09 00:28:08;;;;;;;2.75;2.55;;;;;;;13.66;100.00;63414.50;5092299;28;20268;-74
2023/08/09 00:30:35;;;;;;;2.63;2.53;;;;;;;13.58;100.00;63404.16;5087305;28;20479;-76
2023/08/09 00:33:03;;;;;;;3.25;3.05;;;;;;;13.49;100.00;63391.75;5083290;28;20571;-75
2023/08/09 00:35:31;;;;;;;3.17;3.05;;;;;;;13.52;100.00;63392.31;5090797;28;20204;-75
2023/08/09 00:38:00;;;;;;;2.90;2.70;;;;;;;13.57;100.00;63402.59;5101826;28;20211;-74
2023/08/09 00:40:27;;;;;;;3.28;3.08;;;;;;;13.55;100.00;63400.53;5103688;28;20208;-75
2023/08/09 00:42:54;;;;;;;2.80;2.70;;;;;;;13.55;100.00;63398.50;5104240;28;20274;-74
2023/08/09 00:45:22;;;;;;;2.95;2.83;;;;;;;13.54;100.00;63399.50;5103611;28;20231;-73
2023/08/09 00:47:49;;;;;;;3.35;3.25;;;;;;;13.54;100.00;63400.03;5097769;28;20208;-74
2023/08/09 00:50:17;;;;;;;2.80;2.70;;;;;;;13.54;100.00;63399.50;5083933;28;20197;-75
2023/08/09 00:52:45;;;;;;;3.33;3.15;;;;;;;13.58;100.00;63403.66;5085956;28;20192;-76
2023/08/09 00:55:15;;;;;;;3.10;3.00;;;;;;;13.55;100.00;63403.09;5084688;28;20197;-75
2023/08/09 00:57:42;;;;;;;3.22;3.13;;;;;;;13.56;100.00;63401.56;5083404;28;20201;-75
2023/08/09 01:00:10;;;;;;;3.53;3.33;;;;;;;13.55;100.00;63400.53;5084265;28;20291;-76
2023/08/09 01:02:38;;;;;;;2.80;2.70;;;;;;;13.53;100.00;63395.91;5094211;28;20326;-75
2023/08/09 01:05:05;;;;;;;3.22;3.03;;;;;;;13.52;100.00;63395.38;5101318;28;20196;-75
2023/08/09 01:07:39;;;;;;;3.15;3.05;;;;;;;13.53;100.00;63393.34;5105001;28;20248;-75
2023/08/09 01:10:14;;;;;;;3.17;3.08;;;;;;;13.48;100.00;63393.25;5109073;28;20249;-74
2023/08/09 01:12:50;;;;;;;2.78;2.67;;;;;;;13.46;100.00;63391.19;5088630;28;20200;-75
2023/08/09 01:15:21;;;;;;;2.95;2.85;;;;;;;13.42;100.00;63387.56;5095075;28;20200;-75
2023/08/09 01:17:51;;;;;;;3.17;2.97;;;;;;;13.45;100.00;63385.56;5100641;28;20223;-75
2023/08/09 01:20:19;;;;;;;2.72;2.63;;;;;;;13.35;100.00;63380.31;5099758;28;20220;-76
2023/08/09 01:22:54;;;;;;;3.13;3.03;;;;;;;13.38;100.00;63382.88;5087034;28;20262;-75
2023/08/09 01:25:24;;;;;;;3.17;3.08;;;;;;;13.39;100.00;63384.44;5089818;28;20280;-74
2023/08/09 01:27:51;;;;;;;2.83;2.72;;;;;;;13.37;100.00;63379.31;5089826;28;20191;-73
2023/08/09 01:30:18;;;;;;;3.22;3.05;;;;;;;13.24;100.00;63365.81;5095996;28;20205;-75
2023/08/09 01:32:46;;;;;;;2.97;2.83;;;;;;;13.24;100.00;63366.31;5086635;28;20196;-75
2023/08/09 01:35:13;;;;;;;2.65;2.55;;;;;;;13.12;100.00;63355.91;5097341;28;20247;-75
2023/08/09 01:37:46;;;;;;;3.15;3.00;;;;;;;13.09;100.00;63350.25;5095438;28;20244;-75
2023/08/09 01:40:16;;;;;;;2.78;2.67;;;;;;;13.08;100.00;63349.22;5107268;28;20196;-74
2023/08/09 01:42:45;;;;;;;3.17;3.00;;;;;;;13.15;100.00;63354.44;5091380;28;20235;-75
2023/08/09 01:45:15;;;;;;;2.90;2.80;;;;;;;13.18;100.00;63364.69;5105633;28;20221;-75
2023/08/09 01:47:43;;;;;;;3.05;2.95;;;;;;;13.17;100.00;63355.97;5104645;28;20245;-73
2023/08/09 01:50:20;;;;;;;3.30;3.00;;;;;;;13.21;100.00;63360.13;5105210;28;20222;-73
2023/08/09 01:52:47;;;;;;;3.15;3.05;;;;;;;13.16;100.00;63362.63;5092680;28;20268;-73
2023/08/09 01:55:17;;;;;;;2.45;2.35;;;;;;;13.20;100.00;63359.63;5088266;28;20204;-75
2023/08/09 01:57:47;;;;;;;3.22;3.03;;;;;;;13.21;100.00;63358.09;5087343;28;20212;-75
2023/08/09 02:00:19;;;;;;;2.92;2.83;;;;;;;13.22;100.00;63364.25;5094766;28;20275;-75
2023/08/09 02:02:46;;;;;;;2.70;2.60;;;;;;;13.15;100.00;63359.53;5092856;28;20212;-74
2023/08/09 02:05:13;;;;;;;3.40;3.20;;;;;;;13.15;100.00;63354.44;5091015;28;20243;-76
2023/08/09 02:07:41;;;;;;;2.72;2.63;;;;;;;13.13;100.00;63346.72;5087691;28;20216;-75
2023/08/09 02:10:10;;;;;;;3.50;3.03;;;;;;;13.09;100.00;63348.22;5097375;28;20196;-74
2023/08/09 02:12:37;;;;;;;3.17;2.97;;;;;;;13.05;100.00;63344.06;5091444;28;20581;-75
2023/08/09 02:15:08;;;;;;;2.88;2.67;;;;;;;13.05;100.00;63349.16;5092038;28;20212;-75
2023/08/09 02:17:36;;;;;;;3.53;3.33;;;;;;;13.03;100.00;63347.09;5101203;28;20198;-74
2023/08/09 02:20:05;;;;;;;2.72;2.63;;;;;;;12.98;100.00;63336.78;5104447;28;20271;-75
2023/08/09 02:22:37;;;;;;;3.30;3.10;;;;;;;13.01;100.00;63342.44;5100477;28;20273;-75
2023/08/09 02:25:05;;;;;;;3.53;3.35;;;;;;;13.00;100.00;63338.31;5093440;28;20219;-74
2023/08/09 02:27:32;;;;;;;3.13;3.03;;;;;;;12.96;100.00;63334.19;5089239;28;20208;-75
2023/08/09 02:29:59;;;;;;;2.75;2.65;;;;;;;12.97;100.00;63333.19;5085766;28;20200;-74
2023/08/09 02:32:27;;;;;;;3.00;2.90;;;;;;;12.94;100.00;63332.13;5086207;28;20223;-75
2023/08/09 02:34:54;;;;;;;2.75;2.60;;;;;;;12.93;100.00;63328.50;5107278;28;20551;-75
2023/08/09 02:37:21;;;;;;;5.68;3.30;;;;;;;12.92;100.00;63333.13;5105576;28;20320;-75
2023/08/09 02:39:49;;;;;;;2.92;2.72;;;;;;;12.93;100.00;63329.03;5096286;28;20585;-76
2023/08/09 02:42:17;;;;;;;3.30;3.20;;;;;;;12.89;100.00;63335.09;5095036;28;20222;-75
2023/08/09 02:44:44;;;;;;;3.90;3.25;;;;;;;12.91;100.00;63334.13;5103301;28;20428;-76
2023/08/09 02:47:11;;;;;;;3.38;3.13;;;;;;;12.90;100.00;63325.41;5105664;28;20236;-75
2023/08/09 02:49:41;;;;;;;3.10;3.00;;;;;;;12.86;100.00;63324.34;5087269;28;20236;-74
2023/08/09 02:52:08;;;;;;;3.20;3.00;;;;;;;12.89;100.00;63324.88;5086518;28;20212;-75
2023/08/09 02:54:36;;;;;;;3.00;2.80;;;;;;;12.91;100.00;63329.00;5095086;28;20223;-75
2023/08/09 02:57:02;;;;;;;3.13;3.03;;;;;;;12.89;100.00;63326.94;5105348;28;20253;-74
2023/08/09 02:59:29;;;;;;;3.05;2.95;;;;;;;12.84;100.00;63322.25;5101107;28;20224;-73
2023/08/09 03:01:56;;;;;;;2.50;2.40;;;;;;;12.80;100.00;63315.56;5085367;28;20486;-75
2023/08/09 03:04:23;;;;;;;3.38;3.10;;;;;;;12.80;100.00;63320.66;5102093;28;20235;-75
2023/08/09 03:06:52;;;;;;;2.70;2.60;;;;;;;12.82;100.00;63325.81;5104764;28;20245;-76
2023/08/09 03:09:18;;;;;;;3.08;2.90;;;;;;;12.80;100.00;63321.19;5095613;28;20220;-76
2023/08/09 03:11:45;;;;;;;2.47;2.38;;;;;;;12.66;100.00;63306.69;5085266;28;20399;-74
2023/08/09 03:14:13;;;;;;;2.45;2.35;;;;;;;12.78;100.00;63316.03;5092260;28;20283;-75
2023/08/09 03:16:41;;;;;;;3.05;2.85;;;;;;;12.63;100.00;63306.09;5101457;28;20199;-75
2023/08/09 03:19:08;;;;;;;3.83;2.65;;;;;;;12.62;100.00;63305.06;5087209;28;20244;-75
2023/08/09 03:21:35;;;;;;;2.88;2.78;;;;;;;12.63;100.00;63308.66;5095152;28;20413;-75
2023/08/09 03:24:04;;;;;;;3.13;2.85;;;;;;;12.64;100.00;63306.63;5104808;28;20239;-75
2023/08/09 03:26:31;;;;;;;2.80;2.60;;;;;;;12.66;100.00;63306.16;5087744;28;20193;-75
2023/08/09 03:28:58;;;;;;;3.03;2.92;;;;;;;12.67;100.00;63307.69;5084822;28;20296;-75
2023/08/09 03:31:25;;;;;;;2.95;2.85;;;;;;;12.63;100.00;63298.44;5099245;28;20200;-74
2023/08/09 03:33:52;;;;;;;2.70;2.60;;;;;;;12.63;100.00;63303.56;5091285;28;20455;-75
2023/08/09 03:36:20;;;;;;;2.90;2.72;;;;;;;12.68;100.00;63313.84;5087337;28;20549;-74
2023/08/09 03:38:46;;;;;;;3.05;2.72;;;;;;;12.75;100.00;63310.38;5086500;28;20247;-76
2023/08/09 03:41:15;;;;;;;2.92;2.70;;;;;;;12.77;100.00;63322.66;5104350;28;20503;-74
2023/08/09 03:43:42;;;;;;;3.25;2.92;;;;;;;12.77;100.00;63320.63;5104635;28;20232;-75
2023/08/09 03:46:10;;;;;;;2.55;2.45;;;;;;;12.82;100.00;63320.19;5093460;28;20459;-76
2023/08/09 03:48:37;;;;;;;2.63;2.53;;;;;;;12.86;100.00;63324.34;5092586;28;20572;-74
2023/08/09 03:51:04;;;;;;;2.50;2.40;;;;;;;12.88;100.00;63326.41;5083481;28;20201;-75
2023/08/09 03:53:31;;;;;;;3.00;2.80;;;;;;;12.97;100.00;63340.34;5084228;28;20525;-74
2023/08/09 03:55:58;;;;;;;3.30;2.50;;;;;;;13.05;100.00;63343.53;5090075;28;20201;-74
2023/08/09 03:58:27;;;;;;;6.00;2.40;;;;;;;13.09;100.00;63355.34;5086858;28;20384;-76
2023/08/09 04:00:54;;;;;;;2.53;2.42;;;;;;;13.15;100.00;63353.91;5086515;28;20358;-75
2023/08/09 04:03:21;;;;;;;2.85;2.75;;;;;;;13.23;100.00;63365.28;5089241;28;20582;-76
2023/08/09 04:05:49;;;;;;;2.72;2.63;;;;;;;13.30;100.00;63372.03;5101685;28;20200;-73
2023/08/09 04:08:16;;;;;;;2.30;2.20;;;;;;;13.39;100.00;63381.88;5084349;28;20472;-75
2023/08/09 04:10:43;;;;;;;2.30;2.20;;;;;;;13.50;100.00;63390.75;5087045;28;20220;-75
2023/08/09 04:13:10;;;;;;;2.60;2.50;;;;;;;13.62;100.00;63408.31;5088151;28;20224;-74
2023/08/09 04:15:39;;;;;;;2.90;2.72;;;;;;;13.74;100.00;63423.34;5090261;28;20200;-74
2023/08/09 04:18:06;;;;;;;2.90;2.70;;;;;;;13.84;100.00;63428.59;5088156;28;20445;-75
2023/08/09 04:20:33;;;;;;;2.85;2.75;;;;;;;13.96;100.00;63437.47;5092404;28;20225;-74
2023/08/09 04:23:01;;;;;;;3.08;2.40;;;;;;;14.06;100.00;63450.41;5103087;28;20219;-75
2023/08/09 04:25:28;;;;;;;2.17;2.08;;;;;;;14.18;100.00;63465.94;5088577;28;20204;-75
2023/08/09 04:27:55;;;;;;;2.42;2.33;;;;;;;14.30;100.00;63475.34;5084641;28;20416;-74
2023/08/09 04:30:23;;;;;;;1.92;1.83;;;;;;;14.44;100.00;63492.97;5084011;28;20211;-74
2023/08/09 04:32:53;;;;;;;1.73;1.70;;;;;;;14.57;100.00;63501.31;5102440;28;20218;-74
2023/08/09 04:35:20;;;;;;;1.98;1.88;;;;;;;14.69;100.00;63515.84;5103125;28;20219;-75
2023/08/09 04:37:47;;;;;;;2.20;2.10;;;;;;;14.80;100.00;63527.25;5091440;28;20243;-76
2023/08/09 04:40:14;;;;;;;2.00;1.92;;;;;;;14.88;100.00;63540.69;5090723;28;20196;-75
2023/08/09 04:42:43;;;;;;;3.25;2.13;;;;;;;15.01;100.00;63549.09;5085864;28;20197;-74
2023/08/09 04:45:10;;;;;;;2.90;2.70;;;;;;;15.17;100.00;63560.56;5088413;28;20275;-74
2023/08/09 04:47:38;;;;;;;1.80;1.70;;;;;;;15.16;100.00;63566.72;5088227;28;20196;-74
2023/08/09 04:50:08;;;;;;;1.38;1.27;;;;;;;14.92;100.00;63539.72;5089827;28;20365;-75
2023/08/09 04:52:36;;;;;;;2.08;1.70;;;;;;;14.95;100.00;63547.97;5102005;28;20386;-74
2023/08/09 04:55:04;;;;;;;1.77;1.67;;;;;;;15.15;100.00;63560.56;5111467;28;20206;-75
2023/08/09 04:57:32;;;;;;;1.95;1.85;;;;;;;15.31;100.00;63579.72;5094979;28;20211;-74
2023/08/09 04:59:59;;;;;;;5.68;2.00;;;;;;;15.30;100.00;63579.22;5103387;28;20477;-76
2023/08/09 05:02:27;;;;;;;2.00;1.90;;;;;;;15.22;100.00;63573.47;5088065;28;20196;-75
2023/08/09 05:04:54;;;;;;;2.92;2.20;;;;;;;15.22;100.00;63570.38;5093510;28;20237;-74
2023/08/09 05:07:22;;;;;;;3.65;2.03;;;;;;;15.38;100.00;63587.00;5087843;28;20220;-75
2023/08/09 05:09:49;;;;;;;2.25;1.50;;;;;;;15.45;100.00;63594.81;5087991;28;20227;-75
2023/08/09 05:12:16;;;;;;;2.17;2.00;;;;;;;15.41;100.00;63590.66;5089289;28;20196;-76
2023/08/09 05:14:43;;;;;;;1.63;1.50;;;;;;;15.43;100.00;63592.25;5092526;28;20220;-76
2023/08/09 05:17:10;;;;;;;1.77;1.77;;;;;;;15.41;100.00;63592.72;5088761;28;20192;-75
2023/08/09 05:19:37;;;;;;;5.85;2.15;;;;;;;15.27;100.00;63581.25;5093450;28;20272;-75
2023/08/09 05:22:04;;;;;;;2.30;2.10;;;;;;;15.34;100.00;63583.38;5104359;28;20263;-74
2023/08/09 05:24:33;;;;;;;3.10;2.90;;;;;;;15.38;100.00;63587.00;5091288;28;20514;-73
2023/08/09 05:27:00;;;;;;;2.50;2.30;;;;;;;15.26;100.00;63575.06;5092298;28;20197;-75
2023/08/09 05:29:27;;;;;;;2.50;2.30;;;;;;;14.96;100.00;63544.41;5090426;28;20216;-75
2023/08/09 05:31:54;;;;;;;2.75;2.50;;;;;;;15.25;100.00;63574.03;5100176;28;20431;-75
2023/08/09 05:34:21;;;;;;;2.83;2.25;;;;;;;15.30;100.00;63581.25;5102002;28;20211;-73
2023/08/09 05:36:49;;;;;;;2.42;2.33;;;;;;;15.07;100.00;63552.75;5102290;28;20205;-75
2023/08/09 05:39:17;;;;;;;3.10;2.13;;;;;;;15.15;100.00;63563.13;5086544;28;20247;-75
2023/08/09 05:41:45;;;;;;;3.55;2.67;;;;;;;15.21;100.00;63569.34;5087981;28;20257;-74
2023/08/09 05:44:12;;;;;;;2.67;2.47;;;;;;;15.35;100.00;63581.31;5087110;28;20232;-77
2023/08/09 05:46:40;;;;;;;2.20;2.10;;;;;;;15.57;100.00;63604.72;5089523;28;20199;-74
2023/08/09 05:49:06;;;;;;;2.53;2.42;;;;;;;15.65;100.00;63615.59;5087904;28;20220;-74
2023/08/09 05:51:35;;;;;;;2.42;2.17;;;;;;;15.79;100.00;63627.09;5091037;28;20208;-75
2023/08/09 05:54:02;;;;;;;2.22;2.13;;;;;;;15.98;99.34;63647.34;5098805;28;20212;-75
2023/08/09 05:56:29;;;;;;;2.30;2.20;;;;;;;16.18;96.49;63672.78;5094178;28;20207;-76
2023/08/09 05:58:58;;;;;;;2.70;2.60;;;;;;;16.23;95.96;63672.31;5090496;28;20294;-76
2023/08/09 06:01:25;;;;;;;2.63;2.35;;;;;;;16.29;96.70;63684.22;5089911;28;20203;-76
2023/08/09 06:03:54;;;;;;;4.60;2.60;;;;;;;16.34;95.38;63684.28;5096695;28;20256;-75
2023/08/09 06:06:21;;;;;;;2.63;2.42;;;;;;;16.29;95.88;63679.06;5104597;28;20199;-75
2023/08/09 06:08:47;;;;;;;3.10;2.90;;;;;;;16.21;94.92;63670.75;5107499;28;20450;-76
2023/08/09 06:11:14;;;;;;;2.50;2.30;;;;;;;16.39;95.73;63686.91;5107595;28;20258;-75
2023/08/09 06:13:41;;;;;;;2.40;2.22;;;;;;;16.37;94.66;63692.03;5099260;28;20385;-74
2023/08/09 06:16:10;;;;;;;1.95;1.95;;;;;;;16.46;97.59;63694.22;5109436;28;20204;-75
2023/08/09 06:18:37;;;;;;;2.60;2.50;;;;;;;16.54;98.02;63704.59;5088890;28;20216;-75
2023/08/09 06:21:04;;;;;;;2.35;2.20;;;;;;;16.68;97.81;63724.81;5087925;28;20207;-75
2023/08/09 06:23:31;;;;;;;2.70;2.50;;;;;;;16.83;96.50;63742.47;5090061;28;20216;-76
2023/08/09 06:25:59;;;;;;;2.40;2.30;;;;;;;16.75;95.20;63731.59;5104816;28;20203;-75
2023/08/09 06:28:26;;;;;;;4.25;2.80;;;;;;;16.90;93.78;63742.03;5102718;28;20224;-74
2023/08/09 06:30:53;;;;;;;5.00;3.90;;;;;;;16.73;95.06;63727.44;5099927;28;20203;-77
2023/08/09 06:33:22;;;;;;;3.28;2.60;;;;;;;16.79;96.70;63731.13;5087464;28;20222;-74
2023/08/09 06:35:49;;;;;;;2.90;2.70;;;;;;;16.90;96.71;63749.75;5090643;28;20196;-76
2023/08/09 06:38:17;;;;;;;2.83;2.63;;;;;;;16.93;93.82;63748.25;5106249;28;20554;-75
2023/08/09 06:40:44;;;;;;;2.75;2.55;;;;;;;17.02;92.80;63757.63;5100525;28;20500;-73
2023/08/09 06:43:11;;;;;;;3.10;2.75;;;;;;;17.07;93.31;63762.84;5091624;28;20227;-74
2023/08/09 06:45:38;;;;;;;4.82;2.67;;;;;;;17.11;94.95;63767.00;5086066;28;20235;-74
2023/08/09 06:48:07;;;;;;;2.92;2.60;;;;;;;17.31;93.84;63792.97;5086814;28;20222;-73
2023/08/09 06:50:36;;;;;;;2.95;2.75;;;;;;;17.43;92.43;63799.28;5092792;28;20200;-74
2023/08/09 06:53:03;;;;;;;5.93;2.70;;;;;;;17.52;91.63;63809.19;5085537;28;20556;-75
2023/08/09 06:55:30;;;;;;;4.15;2.85;;;;;;;17.47;89.41;63803.97;5085821;28;20192;-75
2023/08/09 06:57:57;;;;;;;3.90;2.50;;;;;;;17.54;91.88;63808.69;5090180;28;20219;-76
2023/08/09 07:00:24;;;;;;;2.97;2.65;;;;;;;17.69;88.42;63829.44;5105925;28;20244;-75
2023/08/09 07:02:52;;;;;;;2.58;2.38;;;;;;;17.87;88.28;63842.53;5106347;28;20198;-75
2023/08/09 07:05:20;;;;;;;3.47;3.17;;;;;;;17.88;85.84;63851.28;5108730;28;20254;-77
2023/08/09 07:07:54;;;;;;;2.67;2.53;;;;;;;17.95;87.18;63853.44;5084606;28;20212;-75
2023/08/09 07:10:22;;;;;;;3.20;3.00;;;;;;;18.06;83.10;63867.47;5085321;28;20196;-75
2023/08/09 07:12:49;;;;;;;2.97;2.83;;;;;;;18.06;82.94;63864.91;5086010;28;20225;-76
2023/08/09 07:15:16;;;;;;;2.70;2.60;;;;;;;18.29;80.02;63891.94;5095560;28;20203;-76
2023/08/09 07:17:43;;;;;;;2.88;2.58;;;;;;;18.42;80.32;63902.94;5101530;28;20244;-76
2023/08/09 07:20:11;;;;;;;2.80;2.60;;;;;;;18.65;78.63;63923.28;5106734;28;20231;-76
2023/08/09 07:22:38;;;;;;;3.13;2.90;;;;;;;18.81;77.79;63943.06;5107153;28;20195;-76
2023/08/09 07:25:09;;;;;;;2.85;2.65;;;;;;;19.02;75.58;63967.53;5098992;28;20406;-76
2023/08/09 07:27:41;;;;;;;2.50;2.40;;;;;;;18.87;74.23;63946.75;5106282;28;20183;-76
2023/08/09 07:30:09;;;;;;;2.67;2.40;;;;;;;18.76;72.06;63937.34;5105755;28;20545;-76
2023/08/09 07:32:37;;;;;;;2.35;2.25;;;;;;;18.74;74.52;63935.75;5107484;28;20196;-75
2023/08/09 07:35:05;;;;;;;2.67;2.47;;;;;;;18.76;72.26;63939.94;5101035;28;20207;-77
2023/08/09 07:37:34;;;;;;;2.70;2.50;;;;;;;18.84;73.98;63945.69;5106691;28;20202;-76
2023/08/09 07:40:01;;;;;;;2.80;2.70;;;;;;;18.86;74.60;63945.69;5094470;28;20215;-76
2023/08/09 07:42:29;;;;;;;2.55;2.45;;;;;;;18.98;70.75;63963.34;5086014;28;20214;-76
2023/08/09 07:44:56;;;;;;;2.80;2.60;;;;;;;19.07;72.62;63972.75;5086698;28;20238;-75
2023/08/09 07:47:23;;;;;;;2.28;2.05;;;;;;;19.37;72.39;64006.66;5087626;28;20214;-75
2023/08/09 07:49:50;;;;;;;2.28;2.10;;;;;;;19.46;68.75;64007.75;5087223;28;20341;-75
2023/08/09 07:52:17;;;;;;;3.65;2.70;;;;;;;19.49;69.67;64014.00;5086453;28;20275;-76
2023/08/09 07:54:44;;;;;;;2.38;2.28;;;;;;;19.60;66.98;64024.41;5085129;28;20216;-76
2023/08/09 07:57:12;;;;;;;2.45;2.15;;;;;;;19.59;68.38;64023.88;5085473;28;20518;-75
2023/08/09 07:59:41;;;;;;;2.53;2.40;;;;;;;19.83;68.69;64051.50;5089000;28;20239;-74
2023/08/09 08:02:09;;;;;;;2.50;2.33;;;;;;;19.97;67.98;64065.59;5087888;28;20202;-74
2023/08/09 08:04:36;;;;;;;2.97;2.28;;;;;;;20.18;65.81;64090.09;5090757;28;20243;-75
2023/08/09 08:07:04;;;;;;;2.47;2.35;;;;;;;20.31;64.80;64098.50;5099712;28;20214;-75
2023/08/09 08:09:32;;;;;;;2.85;2.65;;;;;;;20.32;63.38;64099.56;5103435;28;20238;-75
2023/08/09 08:12:00;;;;;;;4.00;2.33;;;;;;;20.05;63.84;64074.47;5104958;28;20195;-76
2023/08/09 08:14:27;;;;;;;2.35;2.20;;;;;;;20.21;63.45;64093.75;5107690;28;20215;-75
2023/08/09 08:16:56;;;;;;;2.38;2.28;;;;;;;20.26;64.80;64091.22;5110717;28;20222;-74
2023/08/09 08:19:23;;;;;;;2.33;2.22;;;;;;;20.38;62.39;64108.41;5110678;28;20424;-75
2023/08/09 08:21:50;;;;;;;2.50;2.28;;;;;;;20.56;62.80;64122.53;5108830;28;20195;-74
2023/08/09 08:24:18;;;;;;;2.60;2.50;;;;;;;20.71;60.97;64139.75;5107398;28;20215;-77
2023/08/09 08:26:45;;;;;;;2.70;2.50;;;;;;;20.77;61.72;64148.59;5091551;28;20200;-76
2023/08/09 08:29:12;;;;;;;3.28;2.95;;;;;;;20.66;62.01;64137.63;5089365;28;20219;-76
2023/08/09 08:31:40;;;;;;;2.83;2.58;;;;;;;20.67;60.77;64138.69;5090471;28;20215;-77
2023/08/09 08:34:08;;;;;;;2.30;2.20;;;;;;;20.64;62.45;64130.34;5090102;28;20287;-77
2023/08/09 08:36:36;;;;;;;2.10;2.00;;;;;;;20.80;61.44;64154.81;5090045;28;20196;-77
2023/08/09 08:39:05;;;;;;;2.00;1.90;;;;;;;21.11;60.17;64184.63;5088818;28;20219;-77
2023/08/09 08:41:34;;;;;;;2.42;1.88;;;;;;;21.31;59.77;64205.50;5092470;28;20427;-77
2023/08/09 08:44:05;;;;;;;2.40;2.30;;;;;;;21.17;58.76;64190.38;5091709;28;20234;-77
2023/08/09 08:46:33;;;;;;;2.10;2.00;;;;;;;21.37;59.38;64211.78;5089823;28;20236;-76
2023/08/09 08:49:02;;;;;;;1.88;1.77;;;;;;;21.38;58.03;64212.81;5089024;28;20294;-75
2023/08/09 08:51:34;;;;;;;2.40;2.30;;;;;;;21.33;58.15;64205.00;5104992;28;20203;-76
2023/08/09 08:54:02;;;;;;;5.22;2.65;;;;;;;21.54;58.63;64224.34;5098122;28;20215;-76
2023/08/09 08:56:31;;;;;;;2.30;2.20;;;;;;;21.53;59.95;64225.91;5106197;28;20231;-76
2023/08/09 08:58:59;;;;;;;2.45;2.28;;;;;;;21.73;59.42;64246.28;5087948;28;20234;-77
2023/08/09 09:01:27;;;;;;;2.28;2.17;;;;;;;21.91;57.31;64267.19;5094088;28;20214;-77
2023/08/09 09:03:54;;;;;;;2.20;2.10;;;;;;;21.94;57.81;64270.31;5088020;28;20214;-78
2023/08/09 09:06:21;;;;;;;2.10;2.00;;;;;;;21.83;57.58;64256.22;5104853;28;20532;-76
2023/08/09 09:08:56;;;;;;;3.95;2.40;;;;;;;21.84;56.72;64259.84;5107419;28;20637;-76
2023/08/09 09:11:24;;;;;;;2.42;1.80;;;;;;;21.81;57.65;64254.66;5109133;28;20325;-76
2023/08/09 09:13:52;;;;;;;1.77;1.70;;;;;;;21.88;56.90;64264.03;5101454;28;20462;-76
2023/08/09 09:16:22;;;;;;;2.22;2.03;;;;;;;22.11;56.76;64282.88;5109134;28;20199;-76
2023/08/09 09:18:49;;;;;;;2.25;2.15;;;;;;;22.32;56.38;64312.63;5109494;28;20253;-76
2023/08/09 09:21:17;;;;;;;2.10;2.00;;;;;;;22.11;54.36;64290.66;5102212;28;20210;-75
2023/08/09 09:23:45;;;;;;;2.08;1.98;;;;;;;22.01;54.42;64278.16;5088141;28;20224;-75
2023/08/09 09:26:15;;;;;;;2.13;1.95;;;;;;;22.34;56.61;64310.03;5086852;28;20290;-75
2023/08/09 09:28:44;;;;;;;2.40;1.83;;;;;;;22.66;55.67;64346.09;5087364;28;20219;-76
2023/08/09 09:31:13;;;;;;;2.03;1.90;;;;;;;22.67;52.18;64347.16;5089515;28;20238;-75
2023/08/09 09:33:45;;;;;;;1.92;1.92;;;;;;;22.60;53.41;64339.84;5090617;28;20366;-76
2023/08/09 09:36:13;;;;;;;2.30;2.13;;;;;;;22.72;52.63;64349.25;5092043;28;20199;-76
2023/08/09 09:38:41;;;;;;;1.73;1.73;;;;;;;22.47;52.67;64323.63;5087130;28;20250;-77
2023/08/09 09:41:09;;;;;;;2.10;2.00;;;;;;;22.64;52.62;64340.91;5094881;28;20359;-75
2023/08/09 09:43:41;;;;;;;1.95;1.85;;;;;;;22.94;54.08;64374.88;5102527;28;20467;-75
2023/08/09 09:46:19;;;;;;;1.75;1.75;;;;;;;23.13;52.79;64394.22;5091544;28;20231;-77
2023/08/09 09:48:49;;;;;;;1.77;1.67;;;;;;;22.96;50.65;64374.38;5086473;28;20520;-76
2023/08/09 09:51:20;;;;;;;1.95;1.85;;;;;;;23.23;50.94;64402.59;5087387;28;20195;-77
2023/08/09 09:53:48;;;;;;;1.70;1.60;;;;;;;23.55;51.03;64435.56;5086237;28;20512;-77
2023/08/09 09:56:16;;;;;;;1.88;1.77;;;;;;;23.84;48.75;64466.44;5088418;28;20204;-75
2023/08/09 09:58:45;;;;;;;1.65;1.65;;;;;;;23.95;50.39;64477.94;5089597;28;20220;-75
2023/08/09 10:01:18;;;;;;;1.67;1.67;;;;;;;24.12;48.85;64497.31;5087266;28;20192;-76
2023/08/09 10:03:45;;;;;;;1.85;1.75;;;;;;;24.29;46.59;64515.13;5091660;28;20559;-76
2023/08/09 10:06:21;;;;;;;2.00;1.80;;;;;;;24.05;45.61;64487.38;5102491;28;20249;-76
2023/08/09 10:08:50;;;;;;;2.00;1.75;;;;;;;24.10;46.01;64495.22;5106465;28;20214;-77
2023/08/09 10:11:20;;;;;;;1.58;1.58;;;;;;;24.19;46.33;64505.19;5110471;28;20259;-77
2023/08/09 10:13:50;;;;;;;1.83;1.73;;;;;;;24.08;46.86;64493.66;5108307;28;20552;-75
2023/08/09 10:16:21;;;;;;;2.50;1.88;;;;;;;23.87;46.08;64471.66;5098586;28;20191;-76
2023/08/09 10:18:52;;;;;;;1.77;1.67;;;;;;;23.52;46.80;64437.63;5090878;28;20536;-76
2023/08/09 10:21:20;;;;;;;1.67;1.65;;;;;;;23.44;45.49;64429.78;5092960;28;20221;-76
2023/08/09 10:23:57;;;;;;;1.58;1.48;;;;;;;23.19;45.43;64403.63;5105227;28;20582;-75
2023/08/09 10:26:31;;;;;;;2.88;2.67;;;;;;;23.33;46.79;64415.66;5093914;28;20286;-76
2023/08/09 10:29:09;;;;;;;1.60;1.50;;;;;;;23.68;45.57;64454.91;5086839;28;20220;-76
2023/08/09 10:31:51;;;;;;;1.38;1.38;;;;;;;23.99;46.86;64487.38;5089931;28;20238;-77
2023/08/09 10:34:20;;;;;;;3.20;1.45;;;;;;;24.45;46.64;64529.78;5105248;28;20207;-77
2023/08/09 10:36:53;;;;;;;2.00;1.90;;;;;;;24.80;45.49;64565.91;5090968;28;20196;-77
2023/08/09 10:39:20;;;;;;;2.58;1.70;;;;;;;24.80;44.82;64569.06;5100433;28;20288;-77
2023/08/09 10:41:59;;;;;;;1.65;1.52;;;;;;;24.60;44.49;64550.69;5097057;28;20234;-76
2023/08/09 10:44:36;;;;;;;2.03;1.70;;;;;;;24.87;43.70;64576.38;5085754;28;20290;-78
2023/08/09 10:47:06;;;;;;;2.10;1.52;;;;;;;25.01;43.05;64587.91;5087344;28;20666;-78
2023/08/09 10:49:46;;;;;;;1.65;1.65;;;;;;;25.14;43.04;64599.44;5095674;28;20286;-78
2023/08/09 10:52:14;;;;;;;1.63;1.58;;;;;;;24.99;42.11;64591.56;5104463;28;20252;-79
2023/08/09 10:54:42;;;;;;;1.27;1.27;;;;;;;24.97;41.88;64584.25;5088368;28;20586;-77
2023/08/09 10:57:11;;;;;;;1.23;1.23;;;;;;;24.92;41.77;64583.69;5089993;28;20200;-77
2023/08/09 10:59:43;;;;;;;1.35;1.35;;;;;;;25.08;41.33;64600.47;5095010;28;20241;-76
2023/08/09 11:02:11;;;;;;;5.18;3.78;;;;;;;25.34;41.61;64625.09;5105777;28;20184;-76
2023/08/09 11:04:38;;;;;;;1.15;1.15;;;;;;;25.48;40.66;64639.78;5094924;28;20294;-76
2023/08/09 11:07:06;;;;;;;1.45;1.40;;;;;;;25.17;40.22;64612.50;5106860;28;20235;-76
2023/08/09 11:09:33;;;;;;;1.63;1.52;;;;;;;24.81;40.23;64564.91;5111908;28;20242;-76
2023/08/09 11:12:00;;;;;;;3.08;1.60;;;;;;;24.89;42.00;64577.94;5106457;28;20541;-76
2023/08/09 11:14:32;;;;;;;1.80;1.70;;;;;;;25.11;41.02;64601.53;5100465;28;20266;-76
2023/08/09 11:17:01;;;;;;;1.50;1.50;;;;;;;25.70;40.35;64665.44;5105627;28;20221;-77
2023/08/09 11:19:28;;;;;;;1.45;1.45;;;;;;;26.07;40.00;64701.66;5106328;28;20215;-76
2023/08/09 11:21:56;;;;;;;2.28;1.48;;;;;;;26.50;38.68;64748.28;5098703;28;20216;-76
2023/08/09 11:24:25;;;;;;;1.17;1.17;;;;;;;26.68;37.30;64762.47;5086736;28;20232;-76
2023/08/09 11:26:55;;;;;;;1.40;1.40;;;;;;;26.63;38.29;64761.94;5086446;28;20224;-77
2023/08/09 11:29:23;;;;;;;1.27;1.23;;;;;;;26.23;39.38;64714.75;5085864;28;20262;-76
2023/08/09 11:31:53;;;;;;;1.23;1.23;;;;;;;26.03;37.08;64700.06;5084701;28;20211;-76
2023/08/09 11:34:23;;;;;;;6.22;2.08;;;;;;;25.81;37.99;64671.75;5086063;28;20212;-76